sensor_id;sensor_type;location;lat;lon;timestamp;P1;durP1;ratioP1;P2;durP2;ratioP2
39066;SDS011;24821;51.988;6.020;2023-03-14T00:00:58;3.67;;;2.63;;
39066;SDS011;24821;51.988;6.020;2023-03-14T00:03:24;6.22;;;2.45;;
39066;SDS011;24821;51.988;6.020;2023-03-14T00:05:50;2.25;;;2.05;;
39066;SDS011;24821;51.988;6.020;2023-03-14T00:08:16;2.28;;;2.08;;
39066;SDS011;24821;51.988;6.020;2023-03-14T00:10:41;1.77;;;1.67;;
39066;SDS011;24821;51.988;6.020;2023-03-14T00:13:07;4.82;;;2.47;;
39066;SDS011;24821;51.988;6.020;2023-03-14T00:15:33;10.77;;;2.15;;
39066;SDS011;24821;51.988;6.020;2023-03-14T00:17:59;1.73;;;1.60;;
39066;SDS011;24821;51.988;6.020;2023-03-14T00:20:25;2.10;;;2.00;;
39066;SDS011;24821;51.988;6.020;2023-03-14T00:22:51;4.25;;;2.97;;
39066;SDS011;24821;51.988;6.020;2023-03-14T00:25:16;6.32;;;3.13;;
39066;SDS011;24821;51.988;6.020;2023-03-14T00:27:42;2.33;;;2.00;;
39066;SDS011;24821;51.988;6.020;2023-03-14T00:30:08;3.70;;;2.05;;
39066;SDS011;24821;51.988;6.020;2023-03-14T00:32:34;7.40;;;2.53;;
39066;SDS011;24821;51.988;6.020;2023-03-14T00:35:00;2.60;;;2.38;;
39066;SDS011;24821;51.988;6.020;2023-03-14T00:37:26;3.58;;;2.45;;
39066;SDS011;24821;51.988;6.020;2023-03-14T00:39:52;6.13;;;2.65;;
39066;SDS011;24821;51.988;6.020;2023-03-14T00:42:18;5.85;;;2.42;;
39066;SDS011;24821;51.988;6.020;2023-03-14T00:44:43;2.38;;;2.20;;
39066;SDS011;24821;51.988;6.020;2023-03-14T00:47:09;2.35;;;1.88;;
39066;SDS011;24821;51.988;6.020;2023-03-14T00:49:34;4.30;;;2.08;;
39066;SDS011;24821;51.988;6.020;2023-03-14T00:52:00;3.88;;;2.40;;
39066;SDS011;24821;51.988;6.020;2023-03-14T00:54:26;4.63;;;2.28;;
39066;SDS011;24821;51.988;6.020;2023-03-14T00:56:51;2.60;;;2.17;;
39066;SDS011;24821;51.988;6.020;2023-03-14T00:59:17;4.50;;;1.73;;
39066;SDS011;24821;51.988;6.020;2023-03-14T01:01:43;2.30;;;2.10;;
39066;SDS011;24821;51.988;6.020;2023-03-14T01:04:09;6.63;;;1.67;;
39066;SDS011;24821;51.988;6.020;2023-03-14T01:06:35;2.20;;;1.95;;
39066;SDS011;24821;51.988;6.020;2023-03-14T01:09:01;3.40;;;1.52;;
39066;SDS011;24821;51.988;6.020;2023-03-14T01:11:28;4.32;;;2.50;;
39066;SDS011;24821;51.988;6.020;2023-03-14T01:13:56;6.15;;;1.95;;
39066;SDS011;24821;51.988;6.020;2023-03-14T01:16:23;5.97;;;2.22;;
39066;SDS011;24821;51.988;6.020;2023-03-14T01:18:50;5.88;;;1.70;;
39066;SDS011;24821;51.988;6.020;2023-03-14T01:21:17;3.90;;;2.03;;
39066;SDS011;24821;51.988;6.020;2023-03-14T01:23:43;3.50;;;2.10;;
39066;SDS011;24821;51.988;6.020;2023-03-14T01:26:11;9.90;;;2.13;;
39066;SDS011;24821;51.988;6.020;2023-03-14T01:28:38;3.85;;;2.10;;
39066;SDS011;24821;51.988;6.020;2023-03-14T01:31:08;7.80;;;2.40;;
39066;SDS011;24821;51.988;6.020;2023-03-14T01:33:35;7.45;;;1.98;;
39066;SDS011;24821;51.988;6.020;2023-03-14T01:36:01;1.80;;;1.70;;
39066;SDS011;24821;51.988;6.020;2023-03-14T01:38:28;2.38;;;2.20;;
39066;SDS011;24821;51.988;6.020;2023-03-14T01:40:54;1.80;;;1.70;;
39066;SDS011;24821;51.988;6.020;2023-03-14T01:43:20;4.13;;;2.30;;
39066;SDS011;24821;51.988;6.020;2023-03-14T01:46:11;2.10;;;1.90;;
39066;SDS011;24821;51.988;6.020;2023-03-14T01:51:36;1.77;;;1.67;;
39066;SDS011;24821;51.988;6.020;2023-03-14T01:54:10;4.43;;;2.22;;
39066;SDS011;24821;51.988;6.020;2023-03-14T01:56:41;1.75;;;1.65;;
39066;SDS011;24821;51.988;6.020;2023-03-14T01:59:11;3.88;;;1.98;;
39066;SDS011;24821;51.988;6.020;2023-03-14T02:01:38;1.67;;;1.58;;
39066;SDS011;24821;51.988;6.020;2023-03-14T02:04:07;2.13;;;1.92;;
39066;SDS011;24821;51.988;6.020;2023-03-14T02:06:35;9.15;;;2.17;;
39066;SDS011;24821;51.988;6.020;2023-03-14T02:09:08;1.98;;;1.80;;
39066;SDS011;24821;51.988;6.020;2023-03-14T02:11:34;4.03;;;2.20;;
39066;SDS011;24821;51.988;6.020;2023-03-14T02:14:00;1.63;;;1.45;;
39066;SDS011;24821;51.988;6.020;2023-03-14T02:16:27;2.28;;;2.10;;
39066;SDS011;24821;51.988;6.020;2023-03-14T02:18:52;1.83;;;1.70;;
39066;SDS011;24821;51.988;6.020;2023-03-14T02:21:20;3.70;;;2.03;;
39066;SDS011;24821;51.988;6.020;2023-03-14T02:29:31;1.67;;;1.52;;
39066;SDS011;24821;51.988;6.020;2023-03-14T02:31:59;3.03;;;1.60;;
39066;SDS011;24821;51.988;6.020;2023-03-14T02:34:25;3.30;;;1.75;;
39066;SDS011;24821;51.988;6.020;2023-03-14T02:36:51;6.13;;;1.95;;
39066;SDS011;24821;51.988;6.020;2023-03-14T02:39:29;3.30;;;1.80;;
39066;SDS011;24821;51.988;6.020;2023-03-14T02:42:01;3.83;;;1.83;;
39066;SDS011;24821;51.988;6.020;2023-03-14T02:44:27;4.25;;;1.58;;
39066;SDS011;24821;51.988;6.020;2023-03-14T02:46:53;6.05;;;1.77;;
39066;SDS011;24821;51.988;6.020;2023-03-14T02:49:18;4.30;;;1.35;;
39066;SDS011;24821;51.988;6.020;2023-03-14T02:51:44;7.75;;;1.42;;
39066;SDS011;24821;51.988;6.020;2023-03-14T02:54:12;2.25;;;1.30;;
39066;SDS011;24821;51.988;6.020;2023-03-14T02:56:39;2.05;;;1.48;;
39066;SDS011;24821;51.988;6.020;2023-03-14T02:59:04;8.40;;;1.63;;
39066;SDS011;24821;51.988;6.020;2023-03-14T03:01:30;2.05;;;1.35;;
39066;SDS011;24821;51.988;6.020;2023-03-14T03:03:56;2.33;;;1.45;;
39066;SDS011;24821;51.988;6.020;2023-03-14T03:06:22;3.53;;;1.63;;
39066;SDS011;24821;51.988;6.020;2023-03-14T03:08:47;5.55;;;1.63;;
39066;SDS011;24821;51.988;6.020;2023-03-14T03:11:13;1.42;;;1.35;;
39066;SDS011;24821;51.988;6.020;2023-03-14T03:13:38;1.42;;;1.30;;
39066;SDS011;24821;51.988;6.020;2023-03-14T03:16:04;7.60;;;2.22;;
39066;SDS011;24821;51.988;6.020;2023-03-14T03:18:30;8.27;;;1.92;;
39066;SDS011;24821;51.988;6.020;2023-03-14T03:20:59;7.90;;;2.20;;
39066;SDS011;24821;51.988;6.020;2023-03-14T03:23:29;8.85;;;2.13;;
39066;SDS011;24821;51.988;6.020;2023-03-14T03:25:55;2.08;;;1.55;;
39066;SDS011;24821;51.988;6.020;2023-03-14T03:28:20;1.40;;;1.27;;
39066;SDS011;24821;51.988;6.020;2023-03-14T03:30:46;2.58;;;1.50;;
39066;SDS011;24821;51.988;6.020;2023-03-14T03:33:12;2.65;;;2.05;;
39066;SDS011;24821;51.988;6.020;2023-03-14T03:35:48;5.60;;;1.80;;
39066;SDS011;24821;51.988;6.020;2023-03-14T03:38:15;5.45;;;1.60;;
39066;SDS011;24821;51.988;6.020;2023-03-14T03:40:41;3.28;;;1.63;;
39066;SDS011;24821;51.988;6.020;2023-03-14T03:43:07;8.88;;;1.98;;
39066;SDS011;24821;51.988;6.020;2023-03-14T03:45:33;4.65;;;2.15;;
39066;SDS011;24821;51.988;6.020;2023-03-14T03:47:59;4.35;;;1.42;;
39066;SDS011;24821;51.988;6.020;2023-03-14T03:50:24;4.90;;;2.78;;
39066;SDS011;24821;51.988;6.020;2023-03-14T03:52:50;3.85;;;1.25;;
39066;SDS011;24821;51.988;6.020;2023-03-14T03:55:15;4.55;;;1.65;;
39066;SDS011;24821;51.988;6.020;2023-03-14T03:57:41;8.15;;;2.92;;
39066;SDS011;24821;51.988;6.020;2023-03-14T04:00:07;2.72;;;1.17;;
39066;SDS011;24821;51.988;6.020;2023-03-14T04:02:36;6.22;;;2.25;;
39066;SDS011;24821;51.988;6.020;2023-03-14T04:05:01;5.80;;;2.00;;
39066;SDS011;24821;51.988;6.020;2023-03-14T04:07:27;5.10;;;2.28;;
39066;SDS011;24821;51.988;6.020;2023-03-14T04:09:52;6.57;;;1.50;;
39066;SDS011;24821;51.988;6.020;2023-03-14T04:12:18;5.85;;;2.30;;
39066;SDS011;24821;51.988;6.020;2023-03-14T04:14:44;10.02;;;1.90;;
39066;SDS011;24821;51.988;6.020;2023-03-14T04:17:10;1.98;;;1.67;;
39066;SDS011;24821;51.988;6.020;2023-03-14T04:19:36;2.40;;;1.58;;
39066;SDS011;24821;51.988;6.020;2023-03-14T04:22:01;5.22;;;1.73;;
39066;SDS011;24821;51.988;6.020;2023-03-14T04:24:27;1.63;;;1.52;;
39066;SDS011;24821;51.988;6.020;2023-03-14T04:26:52;8.18;;;1.85;;
39066;SDS011;24821;51.988;6.020;2023-03-14T04:29:18;4.97;;;1.85;;
39066;SDS011;24821;51.988;6.020;2023-03-14T04:31:43;5.65;;;2.35;;
39066;SDS011;24821;51.988;6.020;2023-03-14T04:34:09;4.47;;;2.45;;
39066;SDS011;24821;51.988;6.020;2023-03-14T04:36:34;4.72;;;2.08;;
39066;SDS011;24821;51.988;6.020;2023-03-14T04:39:00;5.75;;;1.77;;
39066;SDS011;24821;51.988;6.020;2023-03-14T04:41:26;1.70;;;1.60;;
39066;SDS011;24821;51.988;6.020;2023-03-14T04:43:51;4.50;;;2.25;;
39066;SDS011;24821;51.988;6.020;2023-03-14T04:46:17;7.30;;;2.55;;
39066;SDS011;24821;51.988;6.020;2023-03-14T04:48:42;1.58;;;1.40;;
39066;SDS011;24821;51.988;6.020;2023-03-14T04:51:08;9.38;;;2.38;;
39066;SDS011;24821;51.988;6.020;2023-03-14T04:53:34;1.73;;;1.63;;
39066;SDS011;24821;51.988;6.020;2023-03-14T04:56:01;2.15;;;1.92;;
39066;SDS011;24821;51.988;6.020;2023-03-14T04:58:26;2.30;;;1.83;;
39066;SDS011;24821;51.988;6.020;2023-03-14T05:00:52;1.52;;;1.42;;
39066;SDS011;24821;51.988;6.020;2023-03-14T05:03:17;3.88;;;1.90;;
39066;SDS011;24821;51.988;6.020;2023-03-14T05:05:44;3.35;;;1.92;;
39066;SDS011;24821;51.988;6.020;2023-03-14T05:08:10;1.52;;;1.42;;
39066;SDS011;24821;51.988;6.020;2023-03-14T05:10:36;1.88;;;1.50;;
39066;SDS011;24821;51.988;6.020;2023-03-14T05:13:02;6.30;;;2.25;;
39066;SDS011;24821;51.988;6.020;2023-03-14T05:15:27;1.55;;;1.45;;
39066;SDS011;24821;51.988;6.020;2023-03-14T05:17:53;1.58;;;1.52;;
39066;SDS011;24821;51.988;6.020;2023-03-14T05:20:19;4.43;;;2.03;;
39066;SDS011;24821;51.988;6.020;2023-03-14T05:22:45;2.55;;;1.70;;
39066;SDS011;24821;51.988;6.020;2023-03-14T05:25:11;5.03;;;1.75;;
39066;SDS011;24821;51.988;6.020;2023-03-14T05:27:36;6.32;;;2.20;;
39066;SDS011;24821;51.988;6.020;2023-03-14T05:30:03;4.28;;;1.52;;
39066;SDS011;24821;51.988;6.020;2023-03-14T05:32:30;2.50;;;1.73;;
39066;SDS011;24821;51.988;6.020;2023-03-14T05:34:55;3.40;;;1.60;;
39066;SDS011;24821;51.988;6.020;2023-03-14T05:37:24;1.65;;;1.35;;
39066;SDS011;24821;51.988;6.020;2023-03-14T05:39:52;2.13;;;1.60;;
39066;SDS011;24821;51.988;6.020;2023-03-14T05:42:18;5.68;;;2.10;;
39066;SDS011;24821;51.988;6.020;2023-03-14T05:44:44;5.22;;;1.55;;
39066;SDS011;24821;51.988;6.020;2023-03-14T05:47:09;8.50;;;2.03;;
39066;SDS011;24821;51.988;6.020;2023-03-14T05:49:35;2.50;;;1.00;;
39066;SDS011;24821;51.988;6.020;2023-03-14T05:52:01;1.00;;;1.00;;
39066;SDS011;24821;51.988;6.020;2023-03-14T05:54:26;1.60;;;1.17;;
39066;SDS011;24821;51.988;6.020;2023-03-14T05:56:52;5.72;;;1.58;;
39066;SDS011;24821;51.988;6.020;2023-03-14T05:59:17;6.57;;;1.58;;
39066;SDS011;24821;51.988;6.020;2023-03-14T06:01:43;5.72;;;1.73;;
39066;SDS011;24821;51.988;6.020;2023-03-14T06:04:08;2.47;;;1.95;;
39066;SDS011;24821;51.988;6.020;2023-03-14T06:06:34;9.07;;;4.70;;
39066;SDS011;24821;51.988;6.020;2023-03-14T06:09:00;2.90;;;1.55;;
39066;SDS011;24821;51.988;6.020;2023-03-14T06:11:25;4.30;;;2.15;;
39066;SDS011;24821;51.988;6.020;2023-03-14T06:13:51;2.08;;;1.45;;
39066;SDS011;24821;51.988;6.020;2023-03-14T06:16:17;1.42;;;1.30;;
39066;SDS011;24821;51.988;6.020;2023-03-14T06:18:42;3.42;;;1.08;;
39066;SDS011;24821;51.988;6.020;2023-03-14T06:21:08;5.75;;;1.77;;
39066;SDS011;24821;51.988;6.020;2023-03-14T06:23:33;2.63;;;1.23;;
39066;SDS011;24821;51.988;6.020;2023-03-14T06:25:59;4.00;;;1.63;;
39066;SDS011;24821;51.988;6.020;2023-03-14T06:28:25;9.45;;;1.50;;
39066;SDS011;24821;51.988;6.020;2023-03-14T06:30:51;2.55;;;1.90;;
39066;SDS011;24821;51.988;6.020;2023-03-14T06:33:17;4.40;;;1.92;;
39066;SDS011;24821;51.988;6.020;2023-03-14T06:35:42;3.42;;;1.58;;
39066;SDS011;24821;51.988;6.020;2023-03-14T06:38:08;4.53;;;2.13;;
39066;SDS011;24821;51.988;6.020;2023-03-14T06:40:33;3.65;;;1.77;;
39066;SDS011;24821;51.988;6.020;2023-03-14T06:42:59;3.58;;;1.45;;
39066;SDS011;24821;51.988;6.020;2023-03-14T06:45:25;1.95;;;1.20;;
39066;SDS011;24821;51.988;6.020;2023-03-14T06:47:50;1.70;;;1.60;;
39066;SDS011;24821;51.988;6.020;2023-03-14T06:50:16;2.00;;;1.70;;
39066;SDS011;24821;51.988;6.020;2023-03-14T06:52:41;4.25;;;2.40;;
39066;SDS011;24821;51.988;6.020;2023-03-14T06:55:12;1.98;;;1.73;;
39066;SDS011;24821;51.988;6.020;2023-03-14T06:57:38;3.42;;;2.33;;
39066;SDS011;24821;51.988;6.020;2023-03-14T07:00:04;2.08;;;1.88;;
39066;SDS011;24821;51.988;6.020;2023-03-14T07:02:30;2.97;;;2.10;;
39066;SDS011;24821;51.988;6.020;2023-03-14T07:04:56;2.33;;;2.13;;
39066;SDS011;24821;51.988;6.020;2023-03-14T07:07:21;6.93;;;2.60;;
39066;SDS011;24821;51.988;6.020;2023-03-14T07:09:47;3.40;;;2.88;;
39066;SDS011;24821;51.988;6.020;2023-03-14T07:12:12;7.00;;;2.60;;
39066;SDS011;24821;51.988;6.020;2023-03-14T07:14:38;3.53;;;3.08;;
39066;SDS011;24821;51.988;6.020;2023-03-14T07:17:03;3.20;;;2.47;;
39066;SDS011;24821;51.988;6.020;2023-03-14T07:19:29;4.70;;;2.70;;
39066;SDS011;24821;51.988;6.020;2023-03-14T07:21:54;2.88;;;2.58;;
39066;SDS011;24821;51.988;6.020;2023-03-14T07:24:20;3.03;;;2.55;;
39066;SDS011;24821;51.988;6.020;2023-03-14T07:26:45;4.63;;;2.65;;
39066;SDS011;24821;51.988;6.020;2023-03-14T07:29:11;5.75;;;2.40;;
39066;SDS011;24821;51.988;6.020;2023-03-14T07:31:36;2.30;;;2.10;;
39066;SDS011;24821;51.988;6.020;2023-03-14T07:34:02;5.35;;;2.90;;
39066;SDS011;24821;51.988;6.020;2023-03-14T07:36:28;2.33;;;2.15;;
39066;SDS011;24821;51.988;6.020;2023-03-14T07:38:53;3.17;;;2.63;;
39066;SDS011;24821;51.988;6.020;2023-03-14T07:41:19;1.88;;;1.77;;
39066;SDS011;24821;51.988;6.020;2023-03-14T07:43:45;6.47;;;1.80;;
39066;SDS011;24821;51.988;6.020;2023-03-14T07:46:11;1.88;;;1.77;;
39066;SDS011;24821;51.988;6.020;2023-03-14T07:48:37;1.30;;;1.30;;
39066;SDS011;24821;51.988;6.020;2023-03-14T07:51:03;1.40;;;1.40;;
39066;SDS011;24821;51.988;6.020;2023-03-14T07:53:28;1.58;;;1.48;;
39066;SDS011;24821;51.988;6.020;2023-03-14T07:55:54;0.98;;;0.98;;
39066;SDS011;24821;51.988;6.020;2023-03-14T07:58:20;0.82;;;0.82;;
39066;SDS011;24821;51.988;6.020;2023-03-14T08:00:49;2.35;;;0.73;;
39066;SDS011;24821;51.988;6.020;2023-03-14T08:03:16;0.80;;;0.80;;
39066;SDS011;24821;51.988;6.020;2023-03-14T08:05:42;0.80;;;0.80;;
39066;SDS011;24821;51.988;6.020;2023-03-14T08:08:08;2.17;;;1.48;;
39066;SDS011;24821;51.988;6.020;2023-03-14T08:10:34;0.88;;;0.88;;
39066;SDS011;24821;51.988;6.020;2023-03-14T08:13:00;0.80;;;0.80;;
39066;SDS011;24821;51.988;6.020;2023-03-14T08:15:26;0.60;;;0.60;;
39066;SDS011;24821;51.988;6.020;2023-03-14T08:17:53;1.60;;;0.80;;
39066;SDS011;24821;51.988;6.020;2023-03-14T08:20:20;3.05;;;0.73;;
39066;SDS011;24821;51.988;6.020;2023-03-14T08:22:47;1.73;;;1.15;;
39066;SDS011;24821;51.988;6.020;2023-03-14T08:25:13;1.95;;;0.75;;
39066;SDS011;24821;51.988;6.020;2023-03-14T08:27:39;0.60;;;0.60;;
39066;SDS011;24821;51.988;6.020;2023-03-14T08:30:06;1.05;;;0.73;;
39066;SDS011;24821;51.988;6.020;2023-03-14T08:32:36;0.70;;;0.70;;
39066;SDS011;24821;51.988;6.020;2023-03-14T08:35:02;0.65;;;0.65;;
39066;SDS011;24821;51.988;6.020;2023-03-14T08:37:28;0.57;;;0.57;;
39066;SDS011;24821;51.988;6.020;2023-03-14T08:39:53;2.80;;;1.38;;
39066;SDS011;24821;51.988;6.020;2023-03-14T08:42:19;0.70;;;0.70;;
39066;SDS011;24821;51.988;6.020;2023-03-14T08:44:44;0.60;;;0.60;;
39066;SDS011;24821;51.988;6.020;2023-03-14T08:47:10;0.43;;;0.40;;
39066;SDS011;24821;51.988;6.020;2023-03-14T08:49:36;1.13;;;0.88;;
39066;SDS011;24821;51.988;6.020;2023-03-14T08:52:02;1.27;;;0.70;;
39066;SDS011;24821;51.988;6.020;2023-03-14T08:54:28;0.60;;;0.60;;
39066;SDS011;24821;51.988;6.020;2023-03-14T08:56:54;0.65;;;0.65;;
39066;SDS011;24821;51.988;6.020;2023-03-14T08:59:20;2.55;;;0.82;;
39066;SDS011;24821;51.988;6.020;2023-03-14T09:01:45;2.28;;;0.77;;
39066;SDS011;24821;51.988;6.020;2023-03-14T09:04:11;1.20;;;0.77;;
39066;SDS011;24821;51.988;6.020;2023-03-14T09:06:36;2.15;;;0.95;;
39066;SDS011;24821;51.988;6.020;2023-03-14T09:09:02;2.30;;;0.85;;
39066;SDS011;24821;51.988;6.020;2023-03-14T09:11:28;0.73;;;0.73;;
39066;SDS011;24821;51.988;6.020;2023-03-14T09:13:53;2.22;;;0.60;;
39066;SDS011;24821;51.988;6.020;2023-03-14T09:16:19;2.40;;;0.82;;
39066;SDS011;24821;51.988;6.020;2023-03-14T09:18:44;0.95;;;0.80;;
39066;SDS011;24821;51.988;6.020;2023-03-14T09:21:10;1.27;;;0.95;;
39066;SDS011;24821;51.988;6.020;2023-03-14T09:23:36;0.55;;;0.50;;
39066;SDS011;24821;51.988;6.020;2023-03-14T09:26:01;1.08;;;0.90;;
39066;SDS011;24821;51.988;6.020;2023-03-14T09:28:27;1.80;;;0.68;;
39066;SDS011;24821;51.988;6.020;2023-03-14T09:30:53;1.17;;;0.80;;
39066;SDS011;24821;51.988;6.020;2023-03-14T09:33:19;0.70;;;0.70;;
39066;SDS011;24821;51.988;6.020;2023-03-14T09:35:45;0.32;;;0.32;;
39066;SDS011;24821;51.988;6.020;2023-03-14T09:38:11;0.40;;;0.40;;
39066;SDS011;24821;51.988;6.020;2023-03-14T09:40:37;2.83;;;0.68;;
39066;SDS011;24821;51.988;6.020;2023-03-14T09:43:05;0.73;;;0.73;;
39066;SDS011;24821;51.988;6.020;2023-03-14T09:45:35;0.30;;;0.30;;
39066;SDS011;24821;51.988;6.020;2023-03-14T09:48:05;1.85;;;0.75;;
39066;SDS011;24821;51.988;6.020;2023-03-14T09:50:42;0.85;;;0.60;;
39066;SDS011;24821;51.988;6.020;2023-03-14T09:53:12;0.40;;;0.40;;
39066;SDS011;24821;51.988;6.020;2023-03-14T09:55:42;4.57;;;0.70;;
39066;SDS011;24821;51.988;6.020;2023-03-14T09:58:11;0.45;;;0.45;;
39066;SDS011;24821;51.988;6.020;2023-03-14T10:00:39;4.38;;;0.95;;
39066;SDS011;24821;51.988;6.020;2023-03-14T10:05:36;2.00;;;0.95;;
39066;SDS011;24821;51.988;6.020;2023-03-14T10:08:02;1.02;;;0.93;;
39066;SDS011;24821;51.988;6.020;2023-03-14T10:10:28;0.63;;;0.63;;
39066;SDS011;24821;51.988;6.020;2023-03-14T10:15:34;2.53;;;1.08;;
39066;SDS011;24821;51.988;6.020;2023-03-14T10:18:02;1.90;;;1.13;;
39066;SDS011;24821;51.988;6.020;2023-03-14T10:22:58;8.90;;;0.88;;
39066;SDS011;24821;51.988;6.020;2023-03-14T10:25:58;1.17;;;1.08;;
39066;SDS011;24821;51.988;6.020;2023-03-14T10:30:50;3.15;;;1.27;;
39066;SDS011;24821;51.988;6.020;2023-03-14T10:33:21;7.03;;;1.75;;
39066;SDS011;24821;51.988;6.020;2023-03-14T10:35:52;2.50;;;1.08;;
39066;SDS011;24821;51.988;6.020;2023-03-14T10:38:22;0.80;;;0.80;;
39066;SDS011;24821;51.988;6.020;2023-03-14T10:40:50;3.63;;;1.38;;
39066;SDS011;24821;51.988;6.020;2023-03-14T10:43:19;10.35;;;1.73;;
39066;SDS011;24821;51.988;6.020;2023-03-14T10:45:52;4.18;;;1.73;;
39066;SDS011;24821;51.988;6.020;2023-03-14T10:51:03;1.77;;;1.63;;
39066;SDS011;24821;51.988;6.020;2023-03-14T10:53:35;1.15;;;1.00;;
39066;SDS011;24821;51.988;6.020;2023-03-14T10:56:03;4.32;;;1.83;;
39066;SDS011;24821;51.988;6.020;2023-03-14T10:58:30;4.95;;;2.13;;
39066;SDS011;24821;51.988;6.020;2023-03-14T11:09:38;1.63;;;1.50;;
39066;SDS011;24821;51.988;6.020;2023-03-14T11:15:17;5.55;;;1.40;;
39066;SDS011;24821;51.988;6.020;2023-03-14T11:17:58;5.72;;;2.17;;
39066;SDS011;24821;51.988;6.020;2023-03-14T11:26:31;12.35;;;1.42;;
39066;SDS011;24821;51.988;6.020;2023-03-14T11:29:20;5.10;;;2.15;;
39066;SDS011;24821;51.988;6.020;2023-03-14T11:31:46;8.73;;;1.95;;
39066;SDS011;24821;51.988;6.020;2023-03-14T11:42:43;8.98;;;2.15;;
39066;SDS011;24821;51.988;6.020;2023-03-14T11:45:18;7.88;;;2.85;;
39066;SDS011;24821;51.988;6.020;2023-03-14T11:47:48;3.22;;;1.75;;
39066;SDS011;24821;51.988;6.020;2023-03-14T11:50:28;4.13;;;2.03;;
39066;SDS011;24821;51.988;6.020;2023-03-14T11:55:36;6.60;;;2.08;;
39066;SDS011;24821;51.988;6.020;2023-03-14T11:58:09;7.43;;;1.58;;
39066;SDS011;24821;51.988;6.020;2023-03-14T12:00:57;6.85;;;1.85;;
39066;SDS011;24821;51.988;6.020;2023-03-14T12:03:55;6.80;;;1.83;;
39066;SDS011;24821;51.988;6.020;2023-03-14T12:06:31;3.03;;;1.30;;
39066;SDS011;24821;51.988;6.020;2023-03-14T12:09:09;6.43;;;2.53;;
39066;SDS011;24821;51.988;6.020;2023-03-14T12:11:38;7.53;;;1.92;;
39066;SDS011;24821;51.988;6.020;2023-03-14T12:14:26;7.28;;;2.38;;
39066;SDS011;24821;51.988;6.020;2023-03-14T12:17:13;3.92;;;1.98;;
39066;SDS011;24821;51.988;6.020;2023-03-14T12:19:45;6.57;;;1.65;;
39066;SDS011;24821;51.988;6.020;2023-03-14T12:22:13;1.60;;;1.25;;
39066;SDS011;24821;51.988;6.020;2023-03-14T12:24:55;8.65;;;2.40;;
39066;SDS011;24821;51.988;6.020;2023-03-14T12:27:42;3.40;;;1.50;;
39066;SDS011;24821;51.988;6.020;2023-03-14T12:35:51;2.03;;;1.40;;
39066;SDS011;24821;51.988;6.020;2023-03-14T12:41:13;8.20;;;1.95;;
39066;SDS011;24821;51.988;6.020;2023-03-14T12:43:42;1.02;;;1.02;;
39066;SDS011;24821;51.988;6.020;2023-03-14T12:48:44;13.32;;;2.10;;
39066;SDS011;24821;51.988;6.020;2023-03-14T12:51:34;6.97;;;2.33;;
39066;SDS011;24821;51.988;6.020;2023-03-14T12:57:06;5.72;;;1.38;;
39066;SDS011;24821;51.988;6.020;2023-03-14T12:59:36;2.58;;;1.63;;
39066;SDS011;24821;51.988;6.020;2023-03-14T13:04:34;3.88;;;1.83;;
39066;SDS011;24821;51.988;6.020;2023-03-14T13:07:11;2.20;;;1.48;;
39066;SDS011;24821;51.988;6.020;2023-03-14T13:10:05;5.68;;;2.08;;
39066;SDS011;24821;51.988;6.020;2023-03-14T13:15:20;6.32;;;1.45;;
39066;SDS011;24821;51.988;6.020;2023-03-14T13:20:51;1.38;;;1.35;;
39066;SDS011;24821;51.988;6.020;2023-03-14T13:23:24;1.70;;;1.60;;
39066;SDS011;24821;51.988;6.020;2023-03-14T13:25:51;4.82;;;1.77;;
39066;SDS011;24821;51.988;6.020;2023-03-14T13:28:17;1.35;;;0.98;;
39066;SDS011;24821;51.988;6.020;2023-03-14T13:30:44;1.50;;;1.02;;
39066;SDS011;24821;51.988;6.020;2023-03-14T13:33:16;3.72;;;1.40;;
39066;SDS011;24821;51.988;6.020;2023-03-14T13:35:48;1.02;;;1.02;;
39066;SDS011;24821;51.988;6.020;2023-03-14T13:38:20;2.65;;;1.98;;
39066;SDS011;24821;51.988;6.020;2023-03-14T13:40:48;1.90;;;1.77;;
39066;SDS011;24821;51.988;6.020;2023-03-14T13:48:22;1.10;;;1.10;;
39066;SDS011;24821;51.988;6.020;2023-03-14T13:50:54;1.77;;;1.67;;
39066;SDS011;24821;51.988;6.020;2023-03-14T13:53:20;3.60;;;1.42;;
39066;SDS011;24821;51.988;6.020;2023-03-14T13:55:47;14.07;;;2.08;;
39066;SDS011;24821;51.988;6.020;2023-03-14T13:58:20;6.60;;;1.90;;
39066;SDS011;24821;51.988;6.020;2023-03-14T14:01:05;4.75;;;1.55;;
39066;SDS011;24821;51.988;6.020;2023-03-14T14:03:45;3.60;;;1.40;;
39066;SDS011;24821;51.988;6.020;2023-03-14T14:06:33;3.40;;;1.60;;
39066;SDS011;24821;51.988;6.020;2023-03-14T14:09:10;1.27;;;0.90;;
39066;SDS011;24821;51.988;6.020;2023-03-14T14:11:47;1.75;;;1.40;;
39066;SDS011;24821;51.988;6.020;2023-03-14T14:14:29;3.67;;;1.20;;
39066;SDS011;24821;51.988;6.020;2023-03-14T14:16:58;1.17;;;1.17;;
39066;SDS011;24821;51.988;6.020;2023-03-14T14:19:26;3.35;;;1.25;;
39066;SDS011;24821;51.988;6.020;2023-03-14T14:21:54;7.75;;;1.77;;
39066;SDS011;24821;51.988;6.020;2023-03-14T14:24:21;1.60;;;1.50;;
39066;SDS011;24821;51.988;6.020;2023-03-14T14:26:53;1.95;;;1.30;;
39066;SDS011;24821;51.988;6.020;2023-03-14T14:32:08;11.90;;;2.40;;
39066;SDS011;24821;51.988;6.020;2023-03-14T14:37:14;2.22;;;1.70;;
39066;SDS011;24821;51.988;6.020;2023-03-14T14:39:50;3.10;;;1.50;;
39066;SDS011;24821;51.988;6.020;2023-03-14T14:42:18;5.57;;;1.92;;
39066;SDS011;24821;51.988;6.020;2023-03-14T14:44:48;3.13;;;1.52;;
39066;SDS011;24821;51.988;6.020;2023-03-14T14:47:18;1.38;;;1.27;;
39066;SDS011;24821;51.988;6.020;2023-03-14T14:49:47;1.80;;;1.70;;
39066;SDS011;24821;51.988;6.020;2023-03-14T14:54:45;3.97;;;1.95;;
39066;SDS011;24821;51.988;6.020;2023-03-14T14:57:22;1.13;;;1.13;;
39066;SDS011;24821;51.988;6.020;2023-03-14T14:59:50;1.83;;;1.27;;
39066;SDS011;24821;51.988;6.020;2023-03-14T15:05:19;8.43;;;2.00;;
39066;SDS011;24821;51.988;6.020;2023-03-14T15:07:46;3.75;;;1.63;;
39066;SDS011;24821;51.988;6.020;2023-03-14T15:10:13;1.85;;;1.50;;
39066;SDS011;24821;51.988;6.020;2023-03-14T15:12:43;4.47;;;1.38;;
39066;SDS011;24821;51.988;6.020;2023-03-14T15:15:11;1.58;;;1.50;;
39066;SDS011;24821;51.988;6.020;2023-03-14T15:17:38;0.93;;;0.93;;
39066;SDS011;24821;51.988;6.020;2023-03-14T15:20:04;1.98;;;1.35;;
39066;SDS011;24821;51.988;6.020;2023-03-14T15:22:31;1.48;;;1.38;;
39066;SDS011;24821;51.988;6.020;2023-03-14T15:24:57;1.42;;;1.33;;
39066;SDS011;24821;51.988;6.020;2023-03-14T15:27:22;2.58;;;1.23;;
39066;SDS011;24821;51.988;6.020;2023-03-14T15:29:48;2.38;;;1.90;;
39066;SDS011;24821;51.988;6.020;2023-03-14T15:32:15;1.48;;;1.40;;
39066;SDS011;24821;51.988;6.020;2023-03-14T15:34:41;2.05;;;1.85;;
39066;SDS011;24821;51.988;6.020;2023-03-14T15:37:11;1.58;;;1.45;;
39066;SDS011;24821;51.988;6.020;2023-03-14T15:39:38;2.72;;;1.48;;
39066;SDS011;24821;51.988;6.020;2023-03-14T15:42:04;2.03;;;1.73;;
39066;SDS011;24821;51.988;6.020;2023-03-14T15:44:30;2.17;;;1.58;;
39066;SDS011;24821;51.988;6.020;2023-03-14T15:46:55;1.85;;;1.73;;
39066;SDS011;24821;51.988;6.020;2023-03-14T15:49:21;2.88;;;2.05;;
39066;SDS011;24821;51.988;6.020;2023-03-14T15:51:46;2.03;;;1.63;;
39066;SDS011;24821;51.988;6.020;2023-03-14T15:54:12;1.42;;;1.42;;
39066;SDS011;24821;51.988;6.020;2023-03-14T15:56:37;7.97;;;2.45;;
39066;SDS011;24821;51.988;6.020;2023-03-14T15:59:03;1.27;;;1.25;;
39066;SDS011;24821;51.988;6.020;2023-03-14T16:01:29;2.65;;;1.80;;
39066;SDS011;24821;51.988;6.020;2023-03-14T16:03:54;2.70;;;1.70;;
39066;SDS011;24821;51.988;6.020;2023-03-14T16:06:20;3.40;;;1.52;;
39066;SDS011;24821;51.988;6.020;2023-03-14T16:08:46;2.05;;;1.52;;
39066;SDS011;24821;51.988;6.020;2023-03-14T16:11:12;4.55;;;1.90;;
39066;SDS011;24821;51.988;6.020;2023-03-14T16:13:39;2.05;;;1.70;;
39066;SDS011;24821;51.988;6.020;2023-03-14T16:16:06;2.55;;;1.60;;
39066;SDS011;24821;51.988;6.020;2023-03-14T16:18:34;2.20;;;2.08;;
39066;SDS011;24821;51.988;6.020;2023-03-14T16:21:02;2.97;;;2.38;;